sensor_id;sensor_type;location;lat;lon;timestamp;pressure;altitude;pressure_sealevel;temperature;humidity
6530;BME280;3298;42.688;23.366;2023-02-19T00:00:58;51717.09;;;-145.06;49.32
6530;BME280;3298;42.688;23.366;2023-02-19T00:03:25;51725.28;;;-145.06;49.91
6530;BME280;3298;42.688;23.366;2023-02-19T00:05:53;51704.81;;;-145.06;49.76
6530;BME280;3298;42.688;23.366;2023-02-19T00:08:20;51725.28;;;-145.06;50.38
6530;BME280;3298;42.688;23.366;2023-02-19T00:10:47;51739.59;;;-145.06;50.80
6530;BME280;3298;42.688;23.366;2023-02-19T00:13:13;51704.81;;;-145.06;50.52
6530;BME280;3298;42.688;23.366;2023-02-19T00:15:40;51723.22;;;-145.06;50.73
6530;BME280;3298;42.688;23.366;2023-02-19T00:18:07;51727.31;;;-145.06;51.66
6530;BME280;3298;42.688;23.366;2023-02-19T00:20:34;51725.28;;;-145.06;51.24
6530;BME280;3298;42.688;23.366;2023-02-19T00:23:02;51713.00;;;-145.06;51.23
6530;BME280;3298;42.688;23.366;2023-02-19T00:25:28;51700.72;;;-145.06;51.33
6530;BME280;3298;42.688;23.366;2023-02-19T00:27:55;51698.66;;;-145.06;50.96
6530;BME280;3298;42.688;23.366;2023-02-19T00:30:22;51733.47;;;-145.06;51.79
6530;BME280;3298;42.688;23.366;2023-02-19T00:32:49;51708.91;;;-145.06;51.83
6530;BME280;3298;42.688;23.366;2023-02-19T00:35:16;51700.72;;;-145.06;52.11
6530;BME280;3298;42.688;23.366;2023-02-19T00:37:43;51733.47;;;-145.06;52.32
6530;BME280;3298;42.688;23.366;2023-02-19T00:40:11;51737.56;;;-145.06;52.12
6530;BME280;3298;42.688;23.366;2023-02-19T00:42:38;51729.38;;;-145.06;52.03
6530;BME280;3298;42.688;23.366;2023-02-19T00:45:05;51717.09;;;-145.06;51.89
6530;BME280;3298;42.688;23.366;2023-02-19T00:47:32;51723.22;;;-145.06;52.23
6530;BME280;3298;42.688;23.366;2023-02-19T00:49:59;51737.56;;;-145.06;52.63
6530;BME280;3298;42.688;23.366;2023-02-19T00:52:25;51725.28;;;-145.06;52.66
6530;BME280;3298;42.688;23.366;2023-02-19T00:54:52;51733.47;;;-145.06;52.75
6530;BME280;3298;42.688;23.366;2023-02-19T00:57:20;51721.19;;;-145.06;53.14
6530;BME280;3298;42.688;23.366;2023-02-19T00:59:47;51721.19;;;-145.06;53.10
6530;BME280;3298;42.688;23.366;2023-02-19T01:02:14;51733.47;;;-145.06;52.99
6530;BME280;3298;42.688;23.366;2023-02-19T01:04:40;51737.56;;;-145.06;53.51
6530;BME280;3298;42.688;23.366;2023-02-19T01:07:07;51710.94;;;-145.06;53.32
6530;BME280;3298;42.688;23.366;2023-02-19T01:09:34;51702.75;;;-145.06;53.80
6530;BME280;3298;42.688;23.366;2023-02-19T01:12:02;51729.38;;;-145.06;53.64
6530;BME280;3298;42.688;23.366;2023-02-19T01:14:31;51725.28;;;-145.06;53.19
6530;BME280;3298;42.688;23.366;2023-02-19T01:16:58;51704.81;;;-145.06;53.62
6530;BME280;3298;42.688;23.366;2023-02-19T01:19:25;51717.09;;;-145.06;53.29
6530;BME280;3298;42.688;23.366;2023-02-19T01:21:51;51725.28;;;-145.06;53.31
6530;BME280;3298;42.688;23.366;2023-02-19T01:24:18;51721.19;;;-145.06;53.31
6530;BME280;3298;42.688;23.366;2023-02-19T01:26:45;51708.91;;;-145.06;53.66
6530;BME280;3298;42.688;23.366;2023-02-19T01:29:12;51708.91;;;-145.06;54.04
6530;BME280;3298;42.688;23.366;2023-02-19T01:31:40;51680.25;;;-145.06;53.81
6530;BME280;3298;42.688;23.366;2023-02-19T01:34:09;51727.31;;;-145.06;54.15
6530;BME280;3298;42.688;23.366;2023-02-19T01:36:37;51719.13;;;-145.06;54.00
6530;BME280;3298;42.688;23.366;2023-02-19T01:39:05;51719.13;;;-145.06;54.23
6530;BME280;3298;42.688;23.366;2023-02-19T01:41:35;51729.38;;;-145.06;54.33
6530;BME280;3298;42.688;23.366;2023-02-19T01:44:05;51696.63;;;-145.06;54.84
6530;BME280;3298;42.688;23.366;2023-02-19T01:46:33;51749.84;;;-145.06;54.54
6530;BME280;3298;42.688;23.366;2023-02-19T01:49:05;51686.38;;;-145.06;53.97
6530;BME280;3298;42.688;23.366;2023-02-19T01:51:35;51723.22;;;-145.06;53.87
6530;BME280;3298;42.688;23.366;2023-02-19T01:54:04;51725.28;;;-145.06;54.17
6530;BME280;3298;42.688;23.366;2023-02-19T01:56:35;51741.66;;;-145.06;54.54
6530;BME280;3298;42.688;23.366;2023-02-19T01:59:05;51721.19;;;-145.06;54.24
6530;BME280;3298;42.688;23.366;2023-02-19T02:01:32;51725.28;;;-145.06;54.28
6530;BME280;3298;42.688;23.366;2023-02-19T02:03:59;51735.50;;;-145.06;53.96
6530;BME280;3298;42.688;23.366;2023-02-19T02:06:30;51723.22;;;-145.06;53.63
6530;BME280;3298;42.688;23.366;2023-02-19T02:08:59;51684.34;;;-145.06;53.79
6530;BME280;3298;42.688;23.366;2023-02-19T02:11:46;51737.56;;;-145.06;53.87
6530;BME280;3298;42.688;23.366;2023-02-19T02:14:14;51704.81;;;-145.06;54.23
6530;BME280;3298;42.688;23.366;2023-02-19T02:16:50;51737.56;;;-145.06;54.15
6530;BME280;3298;42.688;23.366;2023-02-19T02:19:50;51725.28;;;-145.06;54.05
6530;BME280;3298;42.688;23.366;2023-02-19T02:22:27;51721.19;;;-145.06;53.95
6530;BME280;3298;42.688;23.366;2023-02-19T02:25:23;51741.66;;;-145.06;53.75
6530;BME280;3298;42.688;23.366;2023-02-19T02:28:05;51686.38;;;-145.06;53.92
6530;BME280;3298;42.688;23.366;2023-02-19T02:30:41;51725.28;;;-145.06;53.58
6530;BME280;3298;42.688;23.366;2023-02-19T02:33:16;51758.03;;;-145.06;53.77
6530;BME280;3298;42.688;23.366;2023-02-19T02:35:50;51733.47;;;-145.06;53.70
6530;BME280;3298;42.688;23.366;2023-02-19T02:38:19;51733.47;;;-145.06;53.46
6530;BME280;3298;42.688;23.366;2023-02-19T02:40:47;51719.13;;;-145.06;53.48
6530;BME280;3298;42.688;23.366;2023-02-19T02:43:14;51717.09;;;-145.06;53.64
6530;BME280;3298;42.688;23.366;2023-02-19T02:45:43;51729.38;;;-145.06;53.71
6530;BME280;3298;42.688;23.366;2023-02-19T02:48:21;51684.34;;;-145.06;53.97
6530;BME280;3298;42.688;23.366;2023-02-19T02:50:53;51708.91;;;-145.06;53.47
6530;BME280;3298;42.688;23.366;2023-02-19T02:53:26;51713.00;;;-145.06;53.41
6530;BME280;3298;42.688;23.366;2023-02-19T02:56:13;51684.34;;;-145.06;53.08
6530;BME280;3298;42.688;23.366;2023-02-19T02:58:41;51739.59;;;-145.06;53.03
6530;BME280;3298;42.688;23.366;2023-02-19T03:01:14;51725.28;;;-145.06;52.92
6530;BME280;3298;42.688;23.366;2023-02-19T03:04:02;51733.47;;;-145.06;52.78
6530;BME280;3298;42.688;23.366;2023-02-19T03:06:32;51729.38;;;-145.06;52.68
6530;BME280;3298;42.688;23.366;2023-02-19T03:09:06;51717.09;;;-145.06;52.70
6530;BME280;3298;42.688;23.366;2023-02-19T03:11:37;51725.28;;;-145.06;52.64
6530;BME280;3298;42.688;23.366;2023-02-19T03:14:28;51743.69;;;-145.06;53.05
6530;BME280;3298;42.688;23.366;2023-02-19T03:17:18;51694.56;;;-145.06;53.66
6530;BME280;3298;42.688;23.366;2023-02-19T03:20:09;51717.09;;;-145.06;53.55
6530;BME280;3298;42.688;23.366;2023-02-19T03:22:37;51721.19;;;-145.06;53.99
6530;BME280;3298;42.688;23.366;2023-02-19T03:25:09;51727.31;;;-145.06;54.33
6530;BME280;3298;42.688;23.366;2023-02-19T03:27:57;51708.91;;;-145.06;54.38
6530;BME280;3298;42.688;23.366;2023-02-19T03:30:28;51715.03;;;-145.06;54.15
6530;BME280;3298;42.688;23.366;2023-02-19T03:33:00;51723.22;;;-145.06;54.27
6530;BME280;3298;42.688;23.366;2023-02-19T03:35:30;51741.66;;;-145.06;54.78
6530;BME280;3298;42.688;23.366;2023-02-19T03:38:03;51721.19;;;-145.06;54.55
6530;BME280;3298;42.688;23.366;2023-02-19T03:40:39;51733.47;;;-145.06;54.63
6530;BME280;3298;42.688;23.366;2023-02-19T03:43:15;51708.91;;;-145.06;54.67
6530;BME280;3298;42.688;23.366;2023-02-19T03:45:49;51731.41;;;-145.06;55.38
6530;BME280;3298;42.688;23.366;2023-02-19T03:48:28;51684.34;;;-145.06;54.83
6530;BME280;3298;42.688;23.366;2023-02-19T03:51:29;51721.19;;;-145.06;54.98
6530;BME280;3298;42.688;23.366;2023-02-19T03:54:08;51713.00;;;-145.06;54.92
6530;BME280;3298;42.688;23.366;2023-02-19T03:56:42;51688.44;;;-145.06;55.09
6530;BME280;3298;42.688;23.366;2023-02-19T03:59:15;51717.09;;;-145.06;55.03
6530;BME280;3298;42.688;23.366;2023-02-19T04:01:47;51721.19;;;-145.06;55.01
6530;BME280;3298;42.688;23.366;2023-02-19T04:04:21;51706.84;;;-145.06;55.30
6530;BME280;3298;42.688;23.366;2023-02-19T04:06:53;51688.44;;;-145.06;55.67
6530;BME280;3298;42.688;23.366;2023-02-19T04:09:23;51706.84;;;-145.06;55.60
6530;BME280;3298;42.688;23.366;2023-02-19T04:11:52;51723.22;;;-145.06;55.82
6530;BME280;3298;42.688;23.366;2023-02-19T04:14:22;51700.72;;;-145.06;55.81
6530;BME280;3298;42.688;23.366;2023-02-19T04:16:53;51717.09;;;-145.06;55.62
6530;BME280;3298;42.688;23.366;2023-02-19T04:19:25;51702.75;;;-145.06;56.52
6530;BME280;3298;42.688;23.366;2023-02-19T04:21:54;51700.72;;;-145.06;56.33
6530;BME280;3298;42.688;23.366;2023-02-19T04:24:25;51713.00;;;-145.06;56.02
6530;BME280;3298;42.688;23.366;2023-02-19T04:26:54;51719.13;;;-145.06;56.14
6530;BME280;3298;42.688;23.366;2023-02-19T04:29:21;51713.00;;;-145.06;56.19
6530;BME280;3298;42.688;23.366;2023-02-19T04:31:48;51717.09;;;-145.06;55.54
6530;BME280;3298;42.688;23.366;2023-02-19T04:34:15;51719.13;;;-145.06;56.34
6530;BME280;3298;42.688;23.366;2023-02-19T04:36:43;51713.00;;;-145.06;56.19
6530;BME280;3298;42.688;23.366;2023-02-19T04:39:10;51706.84;;;-145.06;55.92
6530;BME280;3298;42.688;23.366;2023-02-19T04:41:37;51719.13;;;-145.06;55.33
6530;BME280;3298;42.688;23.366;2023-02-19T04:44:04;51692.53;;;-145.06;55.25
6530;BME280;3298;42.688;23.366;2023-02-19T04:46:30;51739.59;;;-145.06;55.33
6530;BME280;3298;42.688;23.366;2023-02-19T04:48:57;51708.91;;;-145.06;55.21
6530;BME280;3298;42.688;23.366;2023-02-19T04:51:24;51723.22;;;-145.06;55.46
6530;BME280;3298;42.688;23.366;2023-02-19T04:53:52;51700.72;;;-145.06;55.59
6530;BME280;3298;42.688;23.366;2023-02-19T04:56:20;51751.88;;;-145.06;55.56
6530;BME280;3298;42.688;23.366;2023-02-19T04:58:47;51715.03;;;-145.06;55.47
6530;BME280;3298;42.688;23.366;2023-02-19T05:01:14;51704.81;;;-145.06;56.10
6530;BME280;3298;42.688;23.366;2023-02-19T05:03:41;51696.63;;;-145.06;55.86
6530;BME280;3298;42.688;23.366;2023-02-19T05:06:10;51713.00;;;-145.06;55.92
6530;BME280;3298;42.688;23.366;2023-02-19T05:08:38;51708.91;;;-145.06;55.52
6530;BME280;3298;42.688;23.366;2023-02-19T05:11:08;51729.38;;;-145.06;55.20
6530;BME280;3298;42.688;23.366;2023-02-19T05:13:36;51745.75;;;-145.06;55.52
6530;BME280;3298;42.688;23.366;2023-02-19T05:16:05;51715.03;;;-145.06;55.16
6530;BME280;3298;42.688;23.366;2023-02-19T05:18:33;51719.13;;;-145.06;54.80
6530;BME280;3298;42.688;23.366;2023-02-19T05:21:00;51733.47;;;-145.06;55.29
6530;BME280;3298;42.688;23.366;2023-02-19T05:23:27;51721.19;;;-145.06;54.91
6530;BME280;3298;42.688;23.366;2023-02-19T05:25:54;51715.03;;;-145.06;55.03
6530;BME280;3298;42.688;23.366;2023-02-19T05:28:23;51713.00;;;-145.06;54.73
6530;BME280;3298;42.688;23.366;2023-02-19T05:30:53;51721.19;;;-145.06;54.87
6530;BME280;3298;42.688;23.366;2023-02-19T05:33:22;51696.63;;;-145.06;54.96
6530;BME280;3298;42.688;23.366;2023-02-19T05:35:51;51690.47;;;-145.06;55.22
6530;BME280;3298;42.688;23.366;2023-02-19T05:38:19;51729.38;;;-145.06;55.40
6530;BME280;3298;42.688;23.366;2023-02-19T05:40:46;51688.44;;;-145.06;55.77
6530;BME280;3298;42.688;23.366;2023-02-19T05:43:13;51688.44;;;-145.06;55.98
6530;BME280;3298;42.688;23.366;2023-02-19T05:45:41;51717.09;;;-145.06;55.19
6530;BME280;3298;42.688;23.366;2023-02-19T05:48:10;51721.19;;;-145.06;55.12
6530;BME280;3298;42.688;23.366;2023-02-19T05:50:37;51719.13;;;-145.06;55.47
6530;BME280;3298;42.688;23.366;2023-02-19T05:53:04;51727.31;;;-145.06;54.60
6530;BME280;3298;42.688;23.366;2023-02-19T05:55:34;51721.19;;;-145.06;54.42
6530;BME280;3298;42.688;23.366;2023-02-19T05:58:01;51704.81;;;-145.06;54.59
6530;BME280;3298;42.688;23.366;2023-02-19T06:00:29;51725.28;;;-145.06;54.43
6530;BME280;3298;42.688;23.366;2023-02-19T06:02:57;51717.09;;;-145.06;54.53
6530;BME280;3298;42.688;23.366;2023-02-19T06:05:24;51704.81;;;-145.06;54.15
6530;BME280;3298;42.688;23.366;2023-02-19T06:07:51;51719.13;;;-145.06;54.70
6530;BME280;3298;42.688;23.366;2023-02-19T06:10:17;51717.09;;;-145.06;54.26
6530;BME280;3298;42.688;23.366;2023-02-19T06:12:44;51708.91;;;-145.06;54.49
6530;BME280;3298;42.688;23.366;2023-02-19T06:15:11;51702.75;;;-145.06;53.96
6530;BME280;3298;42.688;23.366;2023-02-19T06:17:38;51735.50;;;-145.06;53.42
6530;BME280;3298;42.688;23.366;2023-02-19T06:20:07;51719.13;;;-145.06;52.81
6530;BME280;3298;42.688;23.366;2023-02-19T06:22:34;51698.66;;;-145.06;52.46
6530;BME280;3298;42.688;23.366;2023-02-19T06:25:01;51725.28;;;-145.06;52.42
6530;BME280;3298;42.688;23.366;2023-02-19T06:27:28;51717.09;;;-145.06;52.47
6530;BME280;3298;42.688;23.366;2023-02-19T06:29:54;51723.22;;;-145.06;51.61
6530;BME280;3298;42.688;23.366;2023-02-19T06:32:21;51731.41;;;-145.06;51.21
6530;BME280;3298;42.688;23.366;2023-02-19T06:34:48;51708.91;;;-145.06;51.11
6530;BME280;3298;42.688;23.366;2023-02-19T06:37:16;51727.31;;;-145.06;50.57
6530;BME280;3298;42.688;23.366;2023-02-19T06:39:43;51735.50;;;-145.06;50.43
6530;BME280;3298;42.688;23.366;2023-02-19T06:42:09;51708.91;;;-145.06;49.88
6530;BME280;3298;42.688;23.366;2023-02-19T06:44:36;51749.84;;;-145.06;49.66
6530;BME280;3298;42.688;23.366;2023-02-19T06:47:03;51729.38;;;-145.06;49.79
6530;BME280;3298;42.688;23.366;2023-02-19T06:49:30;51717.09;;;-145.06;49.36
6530;BME280;3298;42.688;23.366;2023-02-19T06:51:57;51733.47;;;-145.06;49.31
6530;BME280;3298;42.688;23.366;2023-02-19T06:54:26;51723.22;;;-145.06;49.28
6530;BME280;3298;42.688;23.366;2023-02-19T06:56:53;51825.56;;;-145.06;49.11
6530;BME280;3298;42.688;23.366;2023-02-19T06:59:23;51725.28;;;-145.06;48.79
6530;BME280;3298;42.688;23.366;2023-02-19T07:01:50;51739.59;;;-145.06;48.59
6530;BME280;3298;42.688;23.366;2023-02-19T07:04:17;51715.03;;;-145.06;48.22
6530;BME280;3298;42.688;23.366;2023-02-19T07:06:44;51710.94;;;-145.06;47.60
6530;BME280;3298;42.688;23.366;2023-02-19T07:09:10;51741.66;;;-145.06;47.63
6530;BME280;3298;42.688;23.366;2023-02-19T07:11:39;51749.84;;;-145.06;47.11
6530;BME280;3298;42.688;23.366;2023-02-19T07:14:07;51747.78;;;-145.06;47.34
6530;BME280;3298;42.688;23.366;2023-02-19T07:16:38;51733.47;;;-145.06;46.79
6530;BME280;3298;42.688;23.366;2023-02-19T07:19:05;51743.69;;;-145.06;46.71
6530;BME280;3298;42.688;23.366;2023-02-19T07:21:32;51737.56;;;-145.06;46.72
6530;BME280;3298;42.688;23.366;2023-02-19T07:24:02;51733.47;;;-145.06;47.72
6530;BME280;3298;42.688;23.366;2023-02-19T07:26:29;51739.59;;;-145.06;47.72
6530;BME280;3298;42.688;23.366;2023-02-19T07:28:57;51706.84;;;-145.06;47.17
6530;BME280;3298;42.688;23.366;2023-02-19T07:31:24;51751.88;;;-145.06;47.39
6530;BME280;3298;42.688;23.366;2023-02-19T07:33:51;51729.38;;;-145.06;46.83
6530;BME280;3298;42.688;23.366;2023-02-19T07:36:18;51733.47;;;-145.06;46.49
6530;BME280;3298;42.688;23.366;2023-02-19T07:38:46;51721.19;;;-145.06;45.95
6530;BME280;3298;42.688;23.366;2023-02-19T07:41:13;51733.47;;;-145.06;46.63
6530;BME280;3298;42.688;23.366;2023-02-19T07:43:39;51743.69;;;-145.06;45.45
6530;BME280;3298;42.688;23.366;2023-02-19T07:46:09;51739.59;;;-145.06;45.88
6530;BME280;3298;42.688;23.366;2023-02-19T07:48:38;51733.47;;;-145.06;46.02
6530;BME280;3298;42.688;23.366;2023-02-19T07:51:07;51762.13;;;-145.06;45.41
6530;BME280;3298;42.688;23.366;2023-02-19T07:53:34;51745.75;;;-145.06;45.01
6530;BME280;3298;42.688;23.366;2023-02-19T07:56:03;51729.38;;;-145.06;45.16
6530;BME280;3298;42.688;23.366;2023-02-19T07:58:31;51758.03;;;-145.06;44.75
6530;BME280;3298;42.688;23.366;2023-02-19T08:01:05;51749.84;;;-145.06;44.56
6530;BME280;3298;42.688;23.366;2023-02-19T08:03:34;51766.22;;;-145.06;44.33
6530;BME280;3298;42.688;23.366;2023-02-19T08:06:00;51743.69;;;-145.06;43.97
6530;BME280;3298;42.688;23.366;2023-02-19T08:08:27;51747.78;;;-145.06;44.25
6530;BME280;3298;42.688;23.366;2023-02-19T08:10:54;51760.06;;;-145.06;43.57
6530;BME280;3298;42.688;23.366;2023-02-19T08:13:38;51751.88;;;-145.06;43.73
6530;BME280;3298;42.688;23.366;2023-02-19T08:16:10;51753.94;;;-145.06;43.39
6530;BME280;3298;42.688;23.366;2023-02-19T08:18:38;51739.59;;;-145.06;43.55
6530;BME280;3298;42.688;23.366;2023-02-19T08:21:05;51753.94;;;-145.06;43.30
6530;BME280;3298;42.688;23.366;2023-02-19T08:23:32;51741.66;;;-145.06;43.21
6530;BME280;3298;42.688;23.366;2023-02-19T08:25:59;51755.97;;;-145.06;43.35
6530;BME280;3298;42.688;23.366;2023-02-19T08:28:26;51731.41;;;-145.06;43.07
6530;BME280;3298;42.688;23.366;2023-02-19T08:30:58;51782.59;;;-145.06;42.75
6530;BME280;3298;42.688;23.366;2023-02-19T08:33:25;51751.88;;;-145.06;42.57
6530;BME280;3298;42.688;23.366;2023-02-19T08:35:53;51758.03;;;-145.06;42.93
6530;BME280;3298;42.688;23.366;2023-02-19T08:38:20;51751.88;;;-145.06;42.90
6530;BME280;3298;42.688;23.366;2023-02-19T08:40:46;51766.22;;;-145.06;42.97
6530;BME280;3298;42.688;23.366;2023-02-19T08:43:15;51735.50;;;-145.06;42.57
6530;BME280;3298;42.688;23.366;2023-02-19T08:45:43;51758.03;;;-145.06;42.66
6530;BME280;3298;42.688;23.366;2023-02-19T08:48:12;51762.13;;;-145.06;42.62
6530;BME280;3298;42.688;23.366;2023-02-19T08:50:39;51737.56;;;-145.06;42.60
6530;BME280;3298;42.688;23.366;2023-02-19T08:53:07;51770.31;;;-145.06;42.52
6530;BME280;3298;42.688;23.366;2023-02-19T08:55:36;51758.03;;;-145.06;42.37
6530;BME280;3298;42.688;23.366;2023-02-19T08:58:03;51758.03;;;-145.06;42.55
6530;BME280;3298;42.688;23.366;2023-02-19T09:00:30;51768.25;;;-145.06;42.62
6530;BME280;3298;42.688;23.366;2023-02-19T09:02:57;51745.75;;;-145.06;42.61
6530;BME280;3298;42.688;23.366;2023-02-19T09:05:24;51758.03;;;-145.06;42.52
6530;BME280;3298;42.688;23.366;2023-02-19T09:07:50;51766.22;;;-145.06;42.38
6530;BME280;3298;42.688;23.366;2023-02-19T09:10:19;51766.22;;;-145.06;42.30
6530;BME280;3298;42.688;23.366;2023-02-19T09:12:45;51751.88;;;-145.06;42.23
6530;BME280;3298;42.688;23.366;2023-02-19T09:15:12;51758.03;;;-145.06;42.32
6530;BME280;3298;42.688;23.366;2023-02-19T09:17:39;51749.84;;;-145.06;42.18
6530;BME280;3298;42.688;23.366;2023-02-19T09:20:06;51753.94;;;-145.06;42.10
6530;BME280;3298;42.688;23.366;2023-02-19T09:22:33;51747.78;;;-145.06;42.05
6530;BME280;3298;42.688;23.366;2023-02-19T09:25:00;51770.31;;;-145.06;41.97
6530;BME280;3298;42.688;23.366;2023-02-19T09:27:29;51764.16;;;-145.06;42.04
6530;BME280;3298;42.688;23.366;2023-02-19T09:29:56;51764.16;;;-145.06;42.11
6530;BME280;3298;42.688;23.366;2023-02-19T09:32:23;51790.78;;;-145.06;42.00
6530;BME280;3298;42.688;23.366;2023-02-19T09:34:50;51776.44;;;-145.06;41.96
6530;BME280;3298;42.688;23.366;2023-02-19T09:37:17;51778.50;;;-145.06;41.87
6530;BME280;3298;42.688;23.366;2023-02-19T09:39:43;51786.69;;;-145.06;41.92
6530;BME280;3298;42.688;23.366;2023-02-19T09:42:13;51755.97;;;-145.06;41.91
6530;BME280;3298;42.688;23.366;2023-02-19T09:44:45;51753.94;;;-145.06;41.84
6530;BME280;3298;42.688;23.366;2023-02-19T09:47:16;51764.16;;;-145.06;41.76
6530;BME280;3298;42.688;23.366;2023-02-19T09:49:46;51778.50;;;-145.06;41.56
6530;BME280;3298;42.688;23.366;2023-02-19T09:52:22;51796.91;;;-145.06;40.85
6530;BME280;3298;42.688;23.366;2023-02-19T09:54:50;51762.13;;;-145.06;40.81
6530;BME280;3298;42.688;23.366;2023-02-19T09:57:22;51766.22;;;-145.06;40.56
6530;BME280;3298;42.688;23.366;2023-02-19T09:59:52;51780.53;;;-145.06;40.72
6530;BME280;3298;42.688;23.366;2023-02-19T10:02:25;51770.31;;;-145.06;40.76
6530;BME280;3298;42.688;23.366;2023-02-19T10:04:54;51760.06;;;-145.06;40.13
6530;BME280;3298;42.688;23.366;2023-02-19T10:07:23;51768.25;;;-145.06;39.66
6530;BME280;3298;42.688;23.366;2023-02-19T10:09:53;51782.59;;;-145.06;39.76
6530;BME280;3298;42.688;23.366;2023-02-19T10:12:25;51753.94;;;-145.06;39.08
6530;BME280;3298;42.688;23.366;2023-02-19T10:14:58;51790.78;;;-145.06;39.26
6530;BME280;3298;42.688;23.366;2023-02-19T10:17:29;51786.69;;;-145.06;39.26
6530;BME280;3298;42.688;23.366;2023-02-19T10:19:59;51770.31;;;-145.06;38.97
6530;BME280;3298;42.688;23.366;2023-02-19T10:22:28;51809.19;;;-145.06;39.19
6530;BME280;3298;42.688;23.366;2023-02-19T10:24:55;51786.69;;;-145.06;38.86
6530;BME280;3298;42.688;23.366;2023-02-19T10:27:25;51762.13;;;-145.06;38.87
6530;BME280;3298;42.688;23.366;2023-02-19T10:29:53;51766.22;;;-145.06;38.61
6530;BME280;3298;42.688;23.366;2023-02-19T10:32:22;51762.13;;;-145.06;38.52
6530;BME280;3298;42.688;23.366;2023-02-19T10:35:06;51784.63;;;-145.06;38.18
6530;BME280;3298;42.688;23.366;2023-02-19T10:37:34;51762.13;;;-145.06;38.37
6530;BME280;3298;42.688;23.366;2023-02-19T10:40:02;51770.31;;;-145.06;37.96
6530;BME280;3298;42.688;23.366;2023-02-19T10:42:29;51778.50;;;-145.06;37.66
6530;BME280;3298;42.688;23.366;2023-02-19T10:45:00;51889.00;;;-145.06;37.85
6530;BME280;3298;42.688;23.366;2023-02-19T10:47:29;51788.72;;;-145.06;37.26
6530;BME280;3298;42.688;23.366;2023-02-19T10:49:58;51778.50;;;-145.06;37.77
6530;BME280;3298;42.688;23.366;2023-02-19T10:52:27;51772.34;;;-145.06;37.23
6530;BME280;3298;42.688;23.366;2023-02-19T10:55:12;51758.03;;;-145.06;37.28
6530;BME280;3298;42.688;23.366;2023-02-19T10:57:40;51776.44;;;-145.06;37.51
6530;BME280;3298;42.688;23.366;2023-02-19T11:00:20;51770.31;;;-145.06;36.91
6530;BME280;3298;42.688;23.366;2023-02-19T11:02:48;51790.78;;;-145.06;37.08
6530;BME280;3298;42.688;23.366;2023-02-19T11:05:17;51780.53;;;-145.06;36.95
6530;BME280;3298;42.688;23.366;2023-02-19T11:07:46;51768.25;;;-145.06;37.06
6530;BME280;3298;42.688;23.366;2023-02-19T11:10:24;51794.88;;;-145.06;36.80
6530;BME280;3298;42.688;23.366;2023-02-19T11:12:54;51788.72;;;-145.06;36.81
6530;BME280;3298;42.688;23.366;2023-02-19T11:15:26;51790.78;;;-145.06;36.47
6530;BME280;3298;42.688;23.366;2023-02-19T11:17:56;51801.00;;;-145.06;36.14
6530;BME280;3298;42.688;23.366;2023-02-19T11:20:23;51778.50;;;-145.06;35.76
6530;BME280;3298;42.688;23.366;2023-02-19T11:22:50;51772.34;;;-145.06;35.57
6530;BME280;3298;42.688;23.366;2023-02-19T11:25:22;51749.84;;;-145.06;33.86
6530;BME280;3298;42.688;23.366;2023-02-19T11:27:55;51819.44;;;-145.06;29.90
6530;BME280;3298;42.688;23.366;2023-02-19T11:30:36;51878.78;;;-145.06;28.83
6530;BME280;3298;42.688;23.366;2023-02-19T11:33:19;51862.41;;;-145.06;26.91
6530;BME280;3298;42.688;23.366;2023-02-19T11:35:49;51790.78;;;-145.06;26.27
6530;BME280;3298;42.688;23.366;2023-02-19T11:38:17;51860.38;;;-145.06;25.85
6530;BME280;3298;42.688;23.366;2023-02-19T11:40:50;51987.25;;;-145.06;24.76
6530;BME280;3298;42.688;23.366;2023-02-19T11:43:49;52003.63;;;-145.06;24.44
6530;BME280;3298;42.688;23.366;2023-02-19T11:46:25;51983.16;;;-145.06;23.90
6530;BME280;3298;42.688;23.366;2023-02-19T11:49:04;51993.41;;;-145.06;24.60
6530;BME280;3298;42.688;23.366;2023-02-19T11:54:49;52007.72;;;-145.06;24.23
6530;BME280;3298;42.688;23.366;2023-02-19T11:57:30;51923.81;;;-145.06;27.17
6530;BME280;3298;42.688;23.366;2023-02-19T12:00:15;51889.00;;;-145.06;28.30
6530;BME280;3298;42.688;23.366;2023-02-19T12:02:57;51884.91;;;-145.06;29.75
6530;BME280;3298;42.688;23.366;2023-02-19T12:05:40;51856.28;;;-145.06;30.17
6530;BME280;3298;42.688;23.366;2023-02-19T12:08:37;51844.00;;;-145.06;30.65
6530;BME280;3298;42.688;23.366;2023-02-19T12:11:19;51852.19;;;-145.06;30.70
6530;BME280;3298;42.688;23.366;2023-02-19T12:14:03;51844.00;;;-145.06;30.43
6530;BME280;3298;42.688;23.366;2023-02-19T12:16:40;51876.75;;;-145.06;30.58
6530;BME280;3298;42.688;23.366;2023-02-19T12:19:25;51864.47;;;-145.06;30.57
6530;BME280;3298;42.688;23.366;2023-02-19T12:22:07;51856.28;;;-145.06;30.77
6530;BME280;3298;42.688;23.366;2023-02-19T12:24:52;51864.47;;;-145.06;30.43
6530;BME280;3298;42.688;23.366;2023-02-19T12:27:37;51852.19;;;-145.06;30.70
6530;BME280;3298;42.688;23.366;2023-02-19T12:30:23;51856.28;;;-145.06;30.48
6530;BME280;3298;42.688;23.366;2023-02-19T12:33:07;51889.00;;;-145.06;30.35
6530;BME280;3298;42.688;23.366;2023-02-19T12:35:52;51856.28;;;-145.06;30.64
6530;BME280;3298;42.688;23.366;2023-02-19T12:38:29;51844.00;;;-145.06;30.79
6530;BME280;3298;42.688;23.366;2023-02-19T12:41:13;51848.09;;;-145.06;30.95
6530;BME280;3298;42.688;23.366;2023-02-19T12:43:45;51872.66;;;-145.06;31.16
6530;BME280;3298;42.688;23.366;2023-02-19T12:46:21;51856.28;;;-145.06;31.08
6530;BME280;3298;42.688;23.366;2023-02-19T12:48:52;51856.28;;;-145.06;31.05
6530;BME280;3298;42.688;23.366;2023-02-19T12:51:25;51852.19;;;-145.06;31.00
6530;BME280;3298;42.688;23.366;2023-02-19T12:53:55;51837.84;;;-145.06;31.16
6530;BME280;3298;42.688;23.366;2023-02-19T12:56:28;51848.09;;;-145.06;31.08
6530;BME280;3298;42.688;23.366;2023-02-19T12:58:59;51850.13;;;-145.06;30.64
6530;BME280;3298;42.688;23.366;2023-02-19T13:01:29;51844.00;;;-145.06;30.86
6530;BME280;3298;42.688;23.366;2023-02-19T13:04:14;51860.38;;;-145.06;30.69
6530;BME280;3298;42.688;23.366;2023-02-19T13:06:50;51868.56;;;-145.06;31.27
6530;BME280;3298;42.688;23.366;2023-02-19T13:09:22;51827.63;;;-145.06;31.11
6530;BME280;3298;42.688;23.366;2023-02-19T13:11:55;51821.47;;;-145.06;30.92